Time;durP1;ratioP1;P1;durP2;ratioP2;P2;SDS_P1;SDS_P2;PMS_P1;PMS_P2;Temp;Humidity;BMP_temperature;BMP_pressure;BME280_temperature;BME280_humidity;BME280_pressure;Samples;Min_cycle;Max_cycle;Signal;HPM_P1;HPM_P2
2023/03/17 00:02:44;;;;;;;2.75;1.30;;;8.80;99.90;;;;;;7281553;32;20123;-55
2023/03/17 00:06:46;;;;;;;2.55;1.27;;;8.80;99.90;;;;;;7277525;32;20409;-55
2023/03/17 00:10:49;;;;;;;3.50;1.12;;;8.90;99.90;;;;;;7285652;32;20595;-54
2023/03/17 00:14:51;;;;;;;4.05;1.42;;;8.80;99.90;;;;;;7290292;32;20108;-56
2023/03/17 00:18:54;;;;;;;2.95;1.48;;;8.90;99.90;;;;;;7283881;32;20483;-56
2023/03/17 00:23:02;;;;;;;2.65;1.40;;;9.00;99.90;;;;;;7280851;32;20612;-55
2023/03/17 00:27:11;;;;;;;3.10;1.52;;;8.90;99.90;;;;;;7284598;32;20116;-55
2023/03/17 00:31:15;;;;;;;3.75;1.45;;;8.90;99.90;;;;;;7282349;32;20120;-55
2023/03/17 00:35:20;;;;;;;5.22;1.80;;;8.90;99.90;;;;;;7284086;32;20262;-55
2023/03/17 00:39:24;;;;;;;2.97;1.75;;;8.90;99.90;;;;;;7287054;32;20210;-55
2023/03/17 00:43:26;;;;;;;3.55;1.70;;;8.90;99.90;;;;;;7279065;32;20130;-55
2023/03/17 00:47:31;;;;;;;3.65;1.40;;;8.90;99.90;;;;;;7278573;32;20139;-55
2023/03/17 00:51:33;;;;;;;4.45;1.52;;;8.90;99.90;;;;;;7280923;32;20122;-55
2023/03/17 00:55:35;;;;;;;2.83;1.52;;;8.90;99.90;;;;;;7276045;32;20521;-56
2023/03/17 00:59:41;;;;;;;2.72;1.33;;;8.70;99.90;;;;;;7278874;32;20528;-55
2023/03/17 01:03:43;;;;;;;2.10;1.10;;;8.70;99.90;;;;;;7281941;32;20305;-55
2023/03/17 01:07:47;;;;;;;5.25;1.40;;;8.70;99.90;;;;;;7288555;32;20104;-55
2023/03/17 01:11:49;;;;;;;2.17;1.10;;;8.70;99.90;;;;;;7290899;32;20112;-56
2023/03/17 01:15:51;;;;;;;6.53;1.50;;;8.70;99.90;;;;;;7287190;32;20182;-56
2023/03/17 01:19:54;;;;;;;2.37;1.25;;;8.70;99.90;;;;;;7286729;32;20127;-55
2023/03/17 01:23:55;;;;;;;3.10;1.50;;;8.60;99.90;;;;;;7278108;32;20161;-55
2023/03/17 01:27:58;;;;;;;4.22;1.50;;;8.60;99.90;;;;;;7283699;32;20198;-55
2023/03/17 01:32:00;;;;;;;5.68;1.52;;;8.60;99.90;;;;;;7283891;32;20138;-55
2023/03/17 01:36:02;;;;;;;2.30;1.30;;;8.50;99.90;;;;;;7278400;32;20139;-56
2023/03/17 01:40:06;;;;;;;5.30;1.45;;;8.50;99.90;;;;;;7290580;32;20127;-55
2023/03/17 01:44:15;;;;;;;4.00;1.52;;;8.40;99.90;;;;;;7281142;32;20289;-55
2023/03/17 01:48:18;;;;;;;4.57;1.35;;;8.30;99.90;;;;;;7281147;32;20695;-55
2023/03/17 01:52:21;;;;;;;3.10;1.37;;;8.20;99.90;;;;;;7284999;32;20139;-56
2023/03/17 01:56:23;;;;;;;3.33;1.58;;;8.20;99.90;;;;;;7265722;32;20116;-55
2023/03/17 02:00:25;;;;;;;2.72;1.60;;;8.10;99.90;;;;;;7283096;32;20198;-55
2023/03/17 02:04:28;;;;;;;4.90;1.33;;;8.10;99.90;;;;;;7280450;32;20443;-55
2023/03/17 02:08:30;;;;;;;2.78;1.50;;;8.20;99.90;;;;;;7275142;32;20158;-55
2023/03/17 02:12:34;;;;;;;3.35;1.37;;;8.10;99.90;;;;;;7281975;32;20209;-56
2023/03/17 02:16:36;;;;;;;2.83;1.23;;;8.30;99.90;;;;;;7273511;32;20233;-55
2023/03/17 02:20:37;;;;;;;6.18;1.60;;;8.20;99.90;;;;;;7282282;32;20502;-55
2023/03/17 02:24:42;;;;;;;4.60;1.52;;;8.10;99.90;;;;;;7280850;32;20104;-55
2023/03/17 02:28:45;;;;;;;3.05;1.45;;;8.00;99.90;;;;;;7282281;32;20805;-55
2023/03/17 02:32:46;;;;;;;3.33;1.33;;;8.10;99.90;;;;;;7264878;32;20227;-55
2023/03/17 02:36:48;;;;;;;2.33;1.25;;;8.10;99.90;;;;;;7277034;32;20276;-55
2023/03/17 02:40:50;;;;;;;5.97;1.42;;;8.10;99.90;;;;;;7278117;32;20549;-57
2023/03/17 02:44:52;;;;;;;2.53;1.48;;;8.10;99.90;;;;;;7280227;32;20141;-56
2023/03/17 02:48:55;;;;;;;3.58;1.40;;;8.10;99.90;;;;;;7272015;32;20116;-55
2023/03/17 02:52:57;;;;;;;3.15;1.40;;;8.20;99.90;;;;;;7278640;32;20129;-55
2023/03/17 02:56:59;;;;;;;3.62;1.50;;;8.20;99.90;;;;;;7278820;32;20183;-55
2023/03/17 03:01:02;;;;;;;4.03;1.80;;;8.20;99.90;;;;;;7275617;32;20139;-56
2023/03/17 03:05:06;;;;;;;3.25;1.25;;;8.10;99.90;;;;;;7277777;32;20112;-55
2023/03/17 03:09:10;;;;;;;3.95;1.65;;;8.00;99.90;;;;;;7288696;32;20206;-55
2023/03/17 03:13:12;;;;;;;3.10;1.40;;;8.10;99.90;;;;;;7281047;32;20541;-55
2023/03/17 03:17:14;;;;;;;7.57;1.50;;;8.10;99.90;;;;;;7279767;32;20242;-55
2023/03/17 03:21:15;;;;;;;3.60;1.52;;;8.00;99.90;;;;;;7279982;32;20112;-55
2023/03/17 03:25:17;;;;;;;3.15;1.77;;;7.90;99.90;;;;;;7281863;32;20162;-55
2023/03/17 03:29:19;;;;;;;3.53;1.60;;;7.80;99.90;;;;;;7270163;32;20143;-56
2023/03/17 03:33:21;;;;;;;7.82;1.45;;;7.90;99.90;;;;;;7280448;32;20235;-55
2023/03/17 03:37:23;;;;;;;3.17;1.30;;;7.80;99.90;;;;;;7282353;32;20112;-55
2023/03/17 03:41:25;;;;;;;4.62;1.52;;;7.70;99.90;;;;;;7287757;32;20171;-55
2023/03/17 03:45:26;;;;;;;6.35;1.50;;;7.70;99.90;;;;;;7278041;32;20503;-55
2023/03/17 03:49:28;;;;;;;3.10;1.55;;;7.60;99.90;;;;;;7282407;32;20930;-56
2023/03/17 03:53:30;;;;;;;2.92;1.30;;;7.60;99.90;;;;;;7281526;32;20282;-55
2023/03/17 03:57:32;;;;;;;2.97;1.40;;;7.60;99.90;;;;;;7287592;32;20127;-56
2023/03/17 04:01:34;;;;;;;4.87;1.52;;;7.80;99.90;;;;;;7281065;32;20154;-56
2023/03/17 04:05:36;;;;;;;4.00;1.77;;;7.80;99.90;;;;;;7286824;32;20146;-55
2023/03/17 04:09:38;;;;;;;3.62;1.65;;;7.70;99.90;;;;;;7286194;32;20223;-55
2023/03/17 04:13:39;;;;;;;3.72;1.75;;;7.60;99.90;;;;;;7285006;32;20254;-55
2023/03/17 04:17:41;;;;;;;2.50;1.50;;;7.70;99.90;;;;;;7280698;32;20206;-56
2023/03/17 04:21:43;;;;;;;2.30;1.33;;;7.80;99.90;;;;;;7286992;32;20298;-55
2023/03/17 04:25:45;;;;;;;5.62;1.33;;;7.80;99.90;;;;;;7283715;32;20125;-55
2023/03/17 04:29:48;;;;;;;2.87;1.50;;;7.70;99.90;;;;;;7279826;32;20217;-55
2023/03/17 04:33:50;;;;;;;2.90;1.65;;;7.70;99.90;;;;;;7293127;32;20163;-56
2023/03/17 04:37:51;;;;;;;4.40;1.55;;;7.70;99.90;;;;;;7284969;32;20215;-55
2023/03/17 04:41:53;;;;;;;4.03;1.73;;;7.70;99.90;;;;;;7286284;32;20120;-55
2023/03/17 04:45:54;;;;;;;3.97;1.40;;;7.80;99.90;;;;;;7285931;32;20505;-55
2023/03/17 04:49:56;;;;;;;5.00;1.83;;;7.90;99.90;;;;;;7285065;32;20535;-55
2023/03/17 04:53:59;;;;;;;3.58;1.67;;;7.80;99.90;;;;;;7281415;32;20270;-54
2023/03/17 04:58:01;;;;;;;2.60;1.50;;;7.70;99.90;;;;;;7288562;32;20122;-55
2023/03/17 05:02:02;;;;;;;2.75;1.65;;;7.80;99.90;;;;;;7289204;32;20226;-55
2023/03/17 05:06:05;;;;;;;5.18;1.92;;;7.70;99.90;;;;;;7285796;32;20822;-55
2023/03/17 05:10:08;;;;;;;4.45;2.10;;;7.90;99.90;;;;;;7281706;32;20753;-55
2023/03/17 05:14:09;;;;;;;2.83;1.50;;;7.80;99.90;;;;;;7275719;32;20139;-55
2023/03/17 05:18:11;;;;;;;2.83;1.60;;;7.80;99.90;;;;;;7276008;32;20662;-55
2023/03/17 05:22:13;;;;;;;5.62;1.70;;;7.90;99.90;;;;;;7282417;32;20665;-55
2023/03/17 05:26:15;;;;;;;3.58;1.55;;;7.90;99.90;;;;;;7278087;32;20154;-55
2023/03/17 05:30:17;;;;;;;5.05;1.98;;;7.80;99.90;;;;;;7271422;32;21297;-55
2023/03/17 05:34:19;;;;;;;4.03;1.58;;;7.80;99.90;;;;;;7274542;32;20198;-56
2023/03/17 05:38:20;;;;;;;5.95;1.50;;;7.70;99.90;;;;;;7281966;32;20116;-55
2023/03/17 05:42:22;;;;;;;6.15;1.40;;;7.70;99.90;;;;;;7281036;32;20249;-55
2023/03/17 05:46:25;;;;;;;3.30;1.60;;;7.70;99.90;;;;;;7277607;32;20589;-56
2023/03/17 05:50:27;;;;;;;3.12;1.60;;;7.70;99.90;;;;;;7275653;32;20158;-56
2023/03/17 05:54:28;;;;;;;4.95;1.58;;;7.80;99.90;;;;;;7276252;32;20298;-57
2023/03/17 05:58:30;;;;;;;2.95;1.60;;;7.90;99.90;;;;;;7280288;32;20142;-56
2023/03/17 06:02:32;;;;;;;2.65;1.60;;;7.90;99.90;;;;;;7278370;32;20161;-56
2023/03/17 06:06:34;;;;;;;6.18;2.10;;;7.90;99.90;;;;;;7262405;32;20696;-56
2023/03/17 06:10:35;;;;;;;4.80;1.60;;;7.90;99.90;;;;;;7278689;32;20104;-56
2023/03/17 06:14:37;;;;;;;3.00;1.67;;;7.90;99.90;;;;;;7277814;32;20119;-56
2023/03/17 06:18:39;;;;;;;3.42;1.40;;;8.00;99.90;;;;;;7281060;32;20115;-57
2023/03/17 06:22:41;;;;;;;3.60;1.30;;;8.00;99.90;;;;;;7278444;32;20125;-56
2023/03/17 06:27:03;;;;;;;2.65;1.25;;;8.10;99.90;;;;;;7279663;32;20109;-56
2023/03/17 06:31:04;;;;;;;3.45;1.67;;;8.20;99.90;;;;;;7276357;32;20534;-56
2023/03/17 06:35:08;;;;;;;2.60;1.30;;;8.20;99.90;;;;;;7280278;32;20232;-55
2023/03/17 06:39:11;;;;;;;4.40;1.52;;;8.30;99.90;;;;;;7282001;32;20149;-56
2023/03/17 06:43:12;;;;;;;3.95;1.60;;;8.30;99.90;;;;;;7273177;32;20150;-56
2023/03/17 06:47:14;;;;;;;2.80;1.50;;;8.50;99.90;;;;;;7272976;32;20161;-56
2023/03/17 06:51:16;;;;;;;8.30;1.80;;;8.60;99.90;;;;;;7275873;32;20214;-56
2023/03/17 06:55:18;;;;;;;8.73;1.95;;;8.70;99.90;;;;;;7262338;32;20221;-56
2023/03/17 06:59:20;;;;;;;4.18;1.73;;;8.80;99.90;;;;;;7280071;32;20173;-57
2023/03/17 07:03:23;;;;;;;3.83;1.83;;;9.00;99.90;;;;;;7282107;32;20765;-55
2023/03/17 07:07:25;;;;;;;4.32;1.58;;;9.10;99.90;;;;;;7271540;32;20707;-56
2023/03/17 07:11:28;;;;;;;3.15;1.67;;;9.20;99.90;;;;;;7277717;32;20187;-56
2023/03/17 07:15:33;;;;;;;3.62;1.45;;;9.30;99.90;;;;;;7273529;32;20784;-57
2023/03/17 07:19:35;;;;;;;3.85;1.70;;;9.50;99.90;;;;;;7273632;32;20274;-56
2023/03/17 07:23:37;;;;;;;3.22;1.50;;;9.50;99.90;;;;;;7273370;32;20171;-56
2023/03/17 07:27:39;;;;;;;2.67;1.40;;;9.60;99.90;;;;;;7273258;32;20231;-56
2023/03/17 07:31:42;;;;;;;3.17;1.35;;;9.80;99.90;;;;;;7276718;32;20564;-56
2023/03/17 07:35:44;;;;;;;4.80;1.75;;;9.80;99.90;;;;;;7283742;32;20573;-56
2023/03/17 07:39:47;;;;;;;3.35;1.60;;;10.00;99.90;;;;;;7277384;32;20126;-56
2023/03/17 07:43:49;;;;;;;4.12;1.25;;;10.10;99.90;;;;;;7280586;32;20264;-56
2023/03/17 07:47:51;;;;;;;2.50;1.37;;;10.20;99.90;;;;;;7273678;32;20175;-56
2023/03/17 07:51:52;;;;;;;3.53;1.87;;;10.40;99.90;;;;;;7278024;32;20185;-56
2023/03/17 07:55:54;;;;;;;3.17;1.62;;;10.50;99.90;;;;;;7276984;32;20108;-56
2023/03/17 07:59:56;;;;;;;2.78;1.30;;;10.60;99.90;;;;;;7272597;32;20305;-57
2023/03/17 08:03:58;;;;;;;3.80;1.20;;;10.70;99.90;;;;;;7275713;32;20274;-56
2023/03/17 08:08:00;;;;;;;3.22;1.70;;;10.80;99.90;;;;;;7284939;32;20221;-56
2023/03/17 08:12:03;;;;;;;6.30;1.17;;;10.90;99.90;;;;;;7275782;32;20267;-56
2023/03/17 08:16:05;;;;;;;3.72;1.40;;;11.00;99.90;;;;;;7277597;32;20330;-57
2023/03/17 08:20:08;;;;;;;3.08;1.35;;;11.10;99.90;;;;;;7276839;32;20139;-56
2023/03/17 08:24:10;;;;;;;2.67;1.50;;;11.20;99.90;;;;;;7280783;32;20111;-58
2023/03/17 08:33:16;;;;;;;3.85;1.50;;;11.40;99.90;;;;;;7273210;32;20112;-57
2023/03/17 08:37:18;;;;;;;3.80;1.20;;;11.40;99.90;;;;;;7282046;32;20112;-56
2023/03/17 08:41:23;;;;;;;3.70;1.27;;;11.50;99.90;;;;;;7282240;32;20494;-56
2023/03/17 08:45:24;;;;;;;2.80;1.67;;;11.80;99.90;;;;;;7284088;32;20139;-56
2023/03/17 08:49:26;;;;;;;7.90;1.60;;;11.90;99.90;;;;;;7279147;32;20119;-56
2023/03/17 08:53:28;;;;;;;4.93;1.62;;;12.00;99.90;;;;;;7275625;32;20108;-57
2023/03/17 08:57:30;;;;;;;3.12;1.42;;;12.20;99.90;;;;;;7278229;32;20521;-57
2023/03/17 09:01:33;;;;;;;3.92;1.20;;;12.50;99.90;;;;;;7286724;32;20221;-57
2023/03/17 09:05:36;;;;;;;3.53;1.55;;;12.60;99.90;;;;;;7276371;32;20194;-57
2023/03/17 09:09:39;;;;;;;2.75;1.30;;;13.00;99.90;;;;;;7283101;32;20226;-58
2023/03/17 09:13:41;;;;;;;3.65;1.15;;;13.50;99.90;;;;;;7270735;32;20280;-57
2023/03/17 09:17:43;;;;;;;4.95;1.52;;;13.70;99.90;;;;;;7280945;32;20236;-57
2023/03/17 09:21:45;;;;;;;2.95;1.50;;;14.10;99.90;;;;;;7281149;32;20183;-57
2023/03/17 09:25:47;;;;;;;3.75;1.40;;;14.00;99.90;;;;;;7285569;32;20197;-57
2023/03/17 09:29:48;;;;;;;3.50;1.42;;;14.50;99.90;;;;;;7279571;32;20108;-57
2023/03/17 09:33:51;;;;;;;3.25;1.52;;;14.70;99.80;;;;;;7281035;32;20230;-58
2023/03/17 09:37:53;;;;;;;2.75;1.30;;;15.30;99.90;;;;;;7282880;32;20183;-58
2023/03/17 09:42:17;;;;;;;4.18;1.50;;;15.80;98.10;;;;;;7278154;32;20112;-57
2023/03/17 09:46:38;;;;;;;3.80;1.50;;;16.20;96.20;;;;;;7274960;32;20141;-58
2023/03/17 09:51:01;;;;;;;3.05;1.50;;;16.80;93.00;;;;;;7276680;32;20555;-57
2023/03/17 09:55:07;;;;;;;3.35;1.40;;;16.80;91.10;;;;;;7275265;32;20126;-57
2023/03/17 09:59:31;;;;;;;3.75;1.62;;;17.00;90.70;;;;;;7279322;32;20112;-57
2023/03/17 10:03:33;;;;;;;2.45;1.40;;;17.40;88.30;;;;;;7275092;32;20104;-57
2023/03/17 10:07:47;;;;;;;2.45;1.40;;;17.50;86.30;;;;;;7279471;32;20333;-57
2023/03/17 10:11:59;;;;;;;1.50;1.25;;;17.60;86.10;;;;;;7280899;32;20225;-57
2023/03/17 10:16:13;;;;;;;2.40;1.45;;;17.50;84.80;;;;;;7273240;32;20136;-57
2023/03/17 10:20:20;;;;;;;3.40;1.40;;;17.10;85.40;;;;;;7267881;32;20597;-57
2023/03/17 10:24:23;;;;;;;;;;;16.20;89.70;;;;;;7278065;32;20157;-57
2023/03/17 10:28:31;;;;;;;2.92;1.40;;;16.60;90.10;;;;;;7279539;32;20820;-57
2023/03/17 10:32:37;;;;;;;3.65;1.20;;;16.70;90.10;;;;;;7279469;32;20245;-57
2023/03/17 10:36:49;;;;;;;6.17;1.60;;;16.30;89.70;;;;;;7277367;32;20428;-57
2023/03/17 10:40:57;;;;;;;3.62;1.85;;;16.30;90.20;;;;;;7281247;32;20568;-57
2023/03/17 10:45:12;;;;;;;;;;;16.00;91.30;;;;;;7279069;32;20151;-57
2023/03/17 10:49:17;;;;;;;5.15;1.45;;;17.00;90.70;;;;;;7281340;32;20007;-57
2023/03/17 10:53:26;;;;;;;4.50;1.65;;;18.00;86.70;;;;;;7277626;32;20108;-57
2023/03/17 10:57:28;;;;;;;3.25;1.40;;;18.00;86.10;;;;;;7273690;32;20124;-57
2023/03/17 11:01:38;;;;;;;3.28;1.70;;;17.70;83.50;;;;;;7273295;32;20186;-57
2023/03/17 11:06:13;;;;;;;3.95;1.40;;;17.50;86.00;;;;;;7277329;32;20267;-56
2023/03/17 11:10:22;;;;;;;3.65;1.60;;;17.20;88.60;;;;;;7281990;32;20135;-57
2023/03/17 11:14:28;;;;;;;4.87;1.40;;;17.20;88.30;;;;;;7279133;32;20287;-57
2023/03/17 11:18:38;;;;;;;4.18;2.05;;;17.30;87.50;;;;;;7283044;32;20778;-58
2023/03/17 11:22:42;;;;;;;9.75;1.83;;;17.30;86.10;;;;;;7283962;32;20194;-57
2023/03/17 11:27:03;;;;;;;3.90;1.90;;;17.40;87.20;;;;;;7292751;32;20122;-57
2023/03/17 11:31:31;;;;;;;3.55;1.83;;;17.70;86.00;;;;;;7283068;32;20104;-57
2023/03/17 11:35:51;;;;;;;3.25;1.55;;;19.20;81.00;;;;;;7284304;32;20137;-57
2023/03/17 11:40:02;;;;;;;4.55;1.87;;;20.70;74.10;;;;;;7288928;32;20220;-57
2023/03/17 11:44:33;;;;;;;3.80;1.70;;;21.50;68.80;;;;;;7285234;32;20108;-57
2023/03/17 11:48:50;;;;;;;6.00;1.83;;;20.50;70.30;;;;;;7290438;32;20112;-57
2023/03/17 11:52:52;;;;;;;4.78;1.55;;;20.80;69.70;;;;;;7285301;32;20159;-57
2023/03/17 11:56:58;;;;;;;2.62;1.48;;;21.70;66.90;;;;;;7281028;32;20593;-57
2023/03/17 12:01:07;;;;;;;3.78;1.48;;;22.40;66.40;;;;;;7284826;32;20868;-58
2023/03/17 12:05:19;;;;;;;5.57;1.50;;;21.80;65.00;;;;;;7287432;32;20462;-58
2023/03/17 12:09:29;;;;;;;4.45;1.67;;;21.80;62.70;;;;;;7284213;32;20872;-58
2023/03/17 12:13:41;;;;;;;3.65;1.42;;;21.80;64.30;;;;;;7280006;32;20112;-57
2023/03/17 12:17:51;;;;;;;3.03;1.65;;;21.30;64.70;;;;;;7267962;32;20144;-56
2023/03/17 12:22:06;;;;;;;5.65;1.55;;;20.40;66.80;;;;;;7276682;32;20207;-57
2023/03/17 12:26:14;;;;;;;3.60;1.77;;;19.60;68.20;;;;;;7277579;32;20179;-59
2023/03/17 12:30:34;;;;;;;4.55;1.80;;;19.20;71.30;;;;;;7261644;32;20135;-57
2023/03/17 12:34:57;;;;;;;5.95;1.80;;;18.80;71.90;;;;;;7277681;32;20162;-57
2023/03/17 12:39:11;;;;;;;5.97;1.67;;;19.10;74.30;;;;;;7281482;32;20467;-57
2023/03/17 12:43:31;;;;;;;3.15;1.60;;;19.30;72.90;;;;;;7280649;32;20169;-57
2023/03/17 12:47:47;;;;;;;3.37;1.67;;;19.70;72.90;;;;;;7273670;32;20758;-57
2023/03/17 12:52:06;;;;;;;3.80;1.90;;;19.70;71.70;;;;;;7274810;32;20132;-57
2023/03/17 12:56:24;;;;;;;4.15;1.90;;;18.90;72.80;;;;;;7277173;32;20499;-59
2023/03/17 13:00:32;;;;;;;3.28;1.75;;;18.50;74.10;;;;;;7272979;32;20215;-57
2023/03/17 13:04:35;;;;;;;3.92;1.58;;;19.00;75.70;;;;;;7276485;32;20789;-57
2023/03/17 13:08:41;;;;;;;5.78;1.80;;;18.90;73.90;;;;;;7277810;32;20149;-57
2023/03/17 13:12:43;;;;;;;3.72;1.40;;;18.90;75.10;;;;;;7274950;32;20111;-57
2023/03/17 13:16:48;;;;;;;4.75;1.60;;;19.00;74.60;;;;;;7279425;32;20131;-57
2023/03/17 13:20:56;;;;;;;4.82;1.27;;;18.70;75.30;;;;;;7275711;32;20118;-58
2023/03/17 13:25:31;;;;;;;2.53;1.30;;;18.90;74.50;;;;;;7280910;32;20137;-57
2023/03/17 13:29:34;;;;;;;4.57;1.62;;;19.20;74.90;;;;;;7276995;32;20205;-57
2023/03/17 13:33:52;;;;;;;3.10;1.35;;;19.10;75.70;;;;;;7281563;32;20178;-56
2023/03/17 13:38:11;;;;;;;4.90;1.30;;;18.90;76.80;;;;;;7279915;32;20299;-57
2023/03/17 13:42:29;;;;;;;4.20;1.33;;;19.10;77.40;;;;;;7273752;32;20403;-57
2023/03/17 13:46:40;;;;;;;3.90;1.33;;;19.60;75.50;;;;;;7279077;32;20168;-58
2023/03/17 13:50:41;;;;;;;3.22;1.55;;;19.70;72.40;;;;;;7278254;32;20176;-57
2023/03/17 13:55:08;;;;;;;4.97;1.80;;;19.30;74.10;;;;;;7272795;32;20215;-57
2023/03/17 13:59:18;;;;;;;4.85;1.30;;;19.70;72.70;;;;;;7270175;32;20210;-57
2023/03/17 14:03:31;;;;;;;3.08;1.30;;;19.50;73.20;;;;;;7274766;32;20216;-56
2023/03/17 14:07:48;;;;;;;4.37;1.17;;;19.50;74.70;;;;;;7277572;32;20582;-56
2023/03/17 14:11:50;;;;;;;4.10;1.20;;;19.30;74.20;;;;;;7277203;32;20180;-56
2023/03/17 14:16:01;;;;;;;3.00;1.37;;;18.80;74.50;;;;;;7274534;32;20198;-56
2023/03/17 14:20:18;;;;;;;3.05;1.48;;;18.80;76.10;;;;;;7278756;32;20195;-56
2023/03/17 14:24:31;;;;;;;3.67;1.37;;;18.90;76.50;;;;;;7276482;32;20122;-56
2023/03/17 14:28:34;;;;;;;7.87;1.30;;;19.20;74.00;;;;;;7278260;32;20541;-56
2023/03/17 14:32:36;;;;;;;3.15;1.23;;;19.30;76.40;;;;;;7280518;32;20199;-56
2023/03/17 14:36:38;;;;;;;4.32;1.30;;;19.00;77.00;;;;;;7282087;32;20423;-56
2023/03/17 14:40:40;;;;;;;4.53;1.12;;;18.80;76.70;;;;;;7273782;32;20131;-56
2023/03/17 14:44:42;;;;;;;2.28;1.35;;;18.80;77.70;;;;;;7270856;32;20235;-57
2023/03/17 14:48:48;;;;;;;4.00;1.27;;;18.70;77.00;;;;;;7272106;32;20200;-57
2023/03/17 14:52:50;;;;;;;4.35;1.30;;;19.00;78.60;;;;;;7278179;32;20309;-57
2023/03/17 14:57:14;;;;;;;2.45;1.33;;;18.90;77.00;;;;;;7279804;32;20096;-57
2023/03/17 15:01:31;;;;;;;5.25;1.40;;;18.60;77.70;;;;;;7271792;32;20097;-56
2023/03/17 15:05:41;;;;;;;3.78;1.50;;;18.30;79.80;;;;;;7280249;32;20096;-56
2023/03/17 15:09:43;;;;;;;5.45;1.48;;;18.00;81.20;;;;;;7274040;32;20116;-57
2023/03/17 15:13:45;;;;;;;2.62;1.25;;;17.70;81.50;;;;;;7281953;32;20126;-57
2023/03/17 15:17:50;;;;;;;4.60;1.55;;;17.60;82.50;;;;;;7283865;32;20769;-57
2023/03/17 15:21:55;;;;;;;3.47;1.40;;;17.40;84.80;;;;;;7276124;32;20760;-56
2023/03/17 15:25:57;;;;;;;5.30;1.42;;;17.20;84.90;;;;;;7274043;32;20215;-56
2023/03/17 15:29:59;;;;;;;4.65;1.20;;;17.20;85.90;;;;;;7282252;32;20108;-57
2023/03/17 15:34:00;;;;;;;6.70;1.60;;;17.00;86.70;;;;;;7281886;32;20530;-56
2023/03/17 15:38:03;;;;;;;1.98;1.12;;;17.00;87.10;;;;;;7274075;32;20507;-56
2023/03/17 15:42:05;;;;;;;3.10;1.25;;;16.80;89.60;;;;;;7278439;32;20123;-56
2023/03/17 15:46:15;;;;;;;3.28;1.35;;;16.80;90.80;;;;;;7275158;32;20582;-57
2023/03/17 15:50:28;;;;;;;4.28;1.58;;;16.70;90.10;;;;;;7277213;32;20112;-56
2023/03/17 15:54:30;;;;;;;5.35;1.20;;;16.70;90.10;;;;;;7272734;32;20215;-57
2023/03/17 15:58:33;;;;;;;3.25;1.05;;;16.60;90.50;;;;;;7279844;32;20175;-57
2023/03/17 16:02:37;;;;;;;3.80;1.17;;;16.50;90.20;;;;;;7288724;32;20104;-56
2023/03/17 16:06:38;;;;;;;7.40;1.30;;;16.50;90.90;;;;;;7278278;32;20117;-56
2023/03/17 16:10:40;;;;;;;3.92;1.37;;;16.40;90.10;;;;;;7275026;32;20339;-56
2023/03/17 16:14:42;;;;;;;3.35;1.17;;;16.30;90.50;;;;;;7276497;32;20757;-57
2023/03/17 16:18:45;;;;;;;2.03;1.00;;;16.00;90.90;;;;;;7282324;32;20107;-57
2023/03/17 16:22:47;;;;;;;4.32;1.33;;;15.80;90.60;;;;;;7293110;32;20226;-56
2023/03/17 16:26:49;;;;;;;3.50;1.23;;;15.70;91.10;;;;;;7281489;32;20104;-57
2023/03/17 16:30:53;;;;;;;4.40;1.00;;;15.70;91.30;;;;;;7286689;32;20171;-56
2023/03/17 16:34:55;;;;;;;8.30;1.10;;;15.60;90.90;;;;;;7281694;32;20159;-57
2023/03/17 16:38:57;;;;;;;4.05;1.05;;;15.40;91.40;;;;;;7285838;32;20498;-58
2023/03/17 16:43:00;;;;;;;2.10;0.95;;;15.30;91.70;;;;;;7290296;32;20206;-57
2023/03/17 16:47:01;;;;;;;5.50;1.20;;;15.20;92.10;;;;;;7272865;32;20542;-57
2023/03/17 16:51:06;;;;;;;3.75;1.35;;;15.10;92.50;;;;;;7279869;32;20170;-57
2023/03/17 16:55:08;;;;;;;6.45;1.20;;;15.00;92.60;;;;;;7283541;32;20317;-57
2023/03/17 16:59:20;;;;;;;3.35;1.10;;;15.00;92.90;;;;;;7286010;32;20860;-57
2023/03/17 17:03:22;;;;;;;4.00;1.10;;;14.80;93.40;;;;;;7286438;32;20139;-57
2023/03/17 17:07:24;;;;;;;4.65;1.20;;;14.80;94.40;;;;;;7277838;32;20233;-57
2023/03/17 17:11:25;;;;;;;3.12;1.30;;;14.70;93.60;;;;;;7276647;32;20122;-56
2023/03/17 17:15:29;;;;;;;4.57;1.10;;;14.60;93.60;;;;;;7276625;32;20234;-56
2023/03/17 17:19:30;;;;;;;2.42;1.05;;;14.60;94.10;;;;;;7279224;32;20253;-57
2023/03/17 17:23:32;;;;;;;2.95;1.08;;;14.60;94.80;;;;;;7284243;32;20161;-56
2023/03/17 17:27:35;;;;;;;4.78;1.23;;;14.50;94.40;;;;;;7280327;32;20495;-56
2023/03/17 17:31:37;;;;;;;2.00;1.02;;;14.40;94.80;;;;;;7277364;32;20930;-56
2023/03/17 17:35:39;;;;;;;4.80;1.37;;;14.40;95.40;;;;;;7279536;32;20606;-57
2023/03/17 17:39:41;;;;;;;6.18;1.60;;;14.30;96.20;;;;;;7282825;32;20190;-57
2023/03/17 17:43:44;;;;;;;3.53;1.40;;;14.20;96.70;;;;;;7279100;32;20195;-56
2023/03/17 17:47:47;;;;;;;5.60;1.80;;;14.10;97.20;;;;;;7272167;32;20297;-56
2023/03/17 17:51:49;;;;;;;4.30;1.40;;;14.00;98.20;;;;;;7278826;32;20111;-56
2023/03/17 17:55:51;;;;;;;6.82;1.52;;;14.00;99.30;;;;;;7277846;32;20184;-56
2023/03/17 17:59:53;;;;;;;4.62;1.50;;;13.90;99.90;;;;;;7277855;32;20191;-56
2023/03/17 18:03:55;;;;;;;4.75;1.58;;;13.80;99.90;;;;;;7276438;32;43582;-55
2023/03/17 18:07:58;;;;;;;5.40;1.52;;;13.70;99.90;;;;;;7278221;32;42099;-55
2023/03/17 18:12:00;;;;;;;5.97;2.15;;;13.70;99.90;;;;;;7272212;32;40661;-56
2023/03/17 18:16:02;;;;;;;6.10;1.70;;;13.50;99.90;;;;;;7274309;32;44742;-55
2023/03/17 18:20:05;;;;;;;7.25;1.70;;;13.60;99.90;;;;;;7274039;32;20165;-56
2023/03/17 18:24:07;;;;;;;7.57;1.58;;;13.60;99.90;;;;;;7276080;32;20116;-56
2023/03/17 18:28:09;;;;;;;6.82;1.42;;;13.60;99.90;;;;;;7279473;32;20144;-55
2023/03/17 18:32:12;;;;;;;6.78;2.12;;;13.60;99.90;;;;;;7277984;32;20134;-56
2023/03/17 18:36:14;;;;;;;4.57;1.40;;;13.60;99.90;;;;;;7278918;32;20100;-57
2023/03/17 18:40:16;;;;;;;6.00;1.80;;;13.40;99.90;;;;;;7271014;32;20108;-56
2023/03/17 18:44:22;;;;;;;5.87;1.45;;;13.30;99.90;;;;;;7281502;32;20107;-56
2023/03/17 18:48:24;;;;;;;5.25;1.58;;;13.10;99.90;;;;;;7274785;32;20380;-56
2023/03/17 18:52:33;;;;;;;3.30;1.52;;;12.90;99.90;;;;;;7273644;32;20249;-56
2023/03/17 18:56:35;;;;;;;6.07;1.70;;;12.80;99.90;;;;;;7267839;32;20133;-56
2023/03/17 19:00:37;;;;;;;5.28;1.60;;;12.80;99.90;;;;;;7280035;32;20151;-56
2023/03/17 19:04:44;;;;;;;4.50;1.80;;;12.80;99.90;;;;;;7276309;32;20116;-56
2023/03/17 19:08:47;;;;;;;5.65;2.10;;;12.60;99.90;;;;;;7281741;32;20172;-56
2023/03/17 19:12:50;;;;;;;4.07;2.10;;;12.50;99.90;;;;;;7268640;32;20104;-56
2023/03/17 19:16:52;;;;;;;5.68;2.05;;;12.40;99.90;;;;;;7280263;32;20262;-57
2023/03/17 19:20:55;;;;;;;6.05;1.70;;;12.50;99.90;;;;;;7281094;32;20173;-56
2023/03/17 19:24:57;;;;;;;4.95;1.62;;;12.40;99.90;;;;;;7281874;32;20132;-56
2023/03/17 19:28:59;;;;;;;4.43;1.83;;;12.50;99.90;;;;;;7282829;32;20169;-57
2023/03/17 19:33:01;;;;;;;6.25;2.05;;;12.40;99.90;;;;;;7283237;32;20100;-57
2023/03/17 19:37:03;;;;;;;4.60;1.95;;;12.30;99.90;;;;;;7283187;32;20224;-56
2023/03/17 19:41:05;;;;;;;4.70;1.92;;;12.30;99.90;;;;;;7286465;32;20153;-57
2023/03/17 19:45:08;;;;;;;4.70;2.00;;;12.20;99.90;;;;;;7276445;32;20357;-57
2023/03/17 19:49:10;;;;;;;5.07;2.35;;;12.10;99.90;;;;;;7282017;32;20520;-57
2023/03/17 19:53:12;;;;;;;3.58;1.67;;;12.10;99.90;;;;;;7284793;32;20294;-57
2023/03/17 19:57:15;;;;;;;6.72;2.00;;;12.10;99.90;;;;;;7282124;32;20222;-57
2023/03/17 20:01:18;;;;;;;6.15;1.60;;;12.20;99.90;;;;;;7286277;32;20157;-56
2023/03/17 20:05:19;;;;;;;5.87;2.22;;;12.20;99.90;;;;;;7279570;32;20264;-57
2023/03/17 20:09:25;;;;;;;5.28;2.00;;;12.40;99.90;;;;;;7275750;32;20112;-57
2023/03/17 20:13:27;;;;;;;4.12;1.55;;;12.50;99.90;;;;;;7277496;32;20518;-56
2023/03/17 20:17:28;;;;;;;7.55;2.17;;;12.60;99.90;;;;;;7279145;32;20142;-57
2023/03/17 20:21:30;;;;;;;4.22;1.90;;;12.60;99.90;;;;;;7281154;32;20308;-57
2023/03/17 20:25:32;;;;;;;7.60;2.20;;;12.60;99.90;;;;;;7280174;32;20565;-54
2023/03/17 20:29:33;;;;;;;7.80;2.05;;;12.50;99.90;;;;;;7291732;32;20457;-55
2023/03/17 20:33:35;;;;;;;4.25;2.05;;;12.60;99.90;;;;;;7276913;32;20135;-55
2023/03/17 20:37:38;;;;;;;5.85;1.87;;;12.60;99.90;;;;;;7280970;32;20108;-54
2023/03/17 20:41:40;;;;;;;5.00;1.80;;;12.40;99.90;;;;;;7278544;32;20246;-55
2023/03/17 20:45:42;;;;;;;5.75;1.80;;;12.40;99.90;;;;;;7279219;32;20272;-55
2023/03/17 20:49:46;;;;;;;6.60;1.80;;;12.30;99.90;;;;;;7281158;32;20108;-56
2023/03/17 20:53:48;;;;;;;4.18;1.95;;;12.30;99.90;;;;;;7281352;32;20130;-56
2023/03/17 20:57:51;;;;;;;5.70;2.17;;;12.20;99.90;;;;;;7281274;32;20128;-56
2023/03/17 21:01:53;;;;;;;6.37;2.28;;;12.10;99.90;;;;;;7278478;32;20556;-55
2023/03/17 21:05:55;;;;;;;6.35;2.20;;;11.80;99.90;;;;;;7283286;32;20111;-55
2023/03/17 21:09:58;;;;;;;6.03;2.10;;;11.60;99.90;;;;;;7287334;32;20134;-56
2023/03/17 21:14:02;;;;;;;7.97;2.85;;;11.50;99.90;;;;;;7289332;32;20452;-56
2023/03/17 21:18:04;;;;;;;7.70;2.37;;;11.30;99.90;;;;;;7281164;32;20265;-56
2023/03/17 21:22:06;;;;;;;8.10;2.53;;;11.20;99.90;;;;;;7276716;32;20830;-56
2023/03/17 21:26:08;;;;;;;9.25;2.47;;;11.00;99.90;;;;;;7281316;32;20108;-56